createdAt,value
2018-09-20T00:01:46.468Z,100550.16
2018-09-20T00:04:17.270Z,100550.42
2018-09-20T00:06:47.960Z,100541.66
2018-09-20T00:09:18.641Z,100537.89
2018-09-20T00:11:49.333Z,100539.47
2018-09-20T00:14:20.130Z,100538.98
2018-09-20T00:16:50.782Z,100538.39
2018-09-20T00:19:21.449Z,100531.21
2018-09-20T00:21:52.094Z,100529.76
2018-09-20T00:24:22.773Z,100527.94
2018-09-20T00:26:53.428Z,100529.63
2018-09-20T00:29:24.036Z,100527.06
2018-09-20T00:31:54.689Z,100524.15
2018-09-20T00:34:25.337Z,100518.95
2018-09-20T00:36:56.060Z,100518.80
2018-09-20T00:39:26.705Z,100518.80
2018-09-20T00:41:57.367Z,100507.03
2018-09-20T00:44:28.036Z,100508.61
2018-09-20T00:46:58.710Z,100503.64
2018-09-20T00:49:29.408Z,100504.61
2018-09-20T00:52:00.061Z,100514.80
2018-09-20T00:54:30.736Z,100505.57
2018-09-20T00:57:01.509Z,100500.60
2018-09-20T00:59:32.269Z,100507.28
2018-09-20T01:02:03.177Z,100503.14
2018-09-20T01:04:34.064Z,100504.36
2018-09-20T01:07:04.781Z,100508.37
2018-09-20T01:09:35.479Z,100511.16
2018-09-20T01:12:06.220Z,100510.91
2018-09-20T01:14:36.939Z,100515.03
2018-09-20T01:17:07.690Z,100517.61
2018-09-20T01:19:38.436Z,100511.30
2018-09-20T01:22:09.105Z,100506.67
2018-09-20T01:24:39.847Z,100511.05
2018-09-20T01:27:10.595Z,100517.23
2018-09-20T01:29:41.326Z,100512.73
2018-09-20T01:32:12.320Z,100515.77
2018-09-20T01:34:43.005Z,100514.08
2018-09-20T01:37:13.731Z,100510.66
2018-09-20T01:39:44.476Z,100515.63
2018-09-20T01:42:15.147Z,100517.89
2018-09-20T01:44:45.816Z,100520.56
2018-09-20T01:47:16.695Z,100519.11
2018-09-20T01:49:47.342Z,100518.02
2018-09-20T01:52:18.065Z,100519.08
2018-09-20T01:54:48.776Z,100518.13
2018-09-20T01:57:19.752Z,100519.34
2018-09-20T01:59:50.444Z,100521.02
2018-09-20T02:02:21.166Z,100520.04
2018-09-20T02:04:51.874Z,100521.38
2018-09-20T02:07:22.588Z,100523.09
2018-09-20T02:09:53.233Z,100522.45
2018-09-20T02:12:23.928Z,100521.50
2018-09-20T02:14:54.618Z,100523.63
2018-09-20T02:17:25.303Z,100521.82
2018-09-20T02:19:56.030Z,100518.67
2018-09-20T02:22:26.696Z,100521.91
2018-09-20T02:24:57.411Z,100522.68
2018-09-20T02:27:28.081Z,100523.28
2018-09-20T02:29:58.803Z,100525.00
2018-09-20T02:32:29.495Z,100529.32
2018-09-20T02:35:00.224Z,100521.47
2018-09-20T02:37:30.982Z,100525.44
2018-09-20T02:40:01.630Z,100530.08
2018-09-20T02:42:39.107Z,100525.66
2018-09-20T02:45:09.838Z,100519.49
2018-09-20T02:47:40.550Z,100524.58
2018-09-20T02:50:11.228Z,100523.75
2018-09-20T02:52:41.988Z,100521.31
2018-09-20T02:55:12.659Z,100525.70
2018-09-20T02:57:43.380Z,100521.30
2018-09-20T03:00:14.090Z,100518.63
2018-09-20T03:02:44.782Z,100514.76
2018-09-20T03:05:15.550Z,100510.97
2018-09-20T03:07:46.236Z,100506.45
2018-09-20T03:10:17.013Z,100515.70
2018-09-20T03:12:47.606Z,100509.25
2018-09-20T03:15:18.308Z,100505.97
2018-09-20T03:17:48.975Z,100512.14
2018-09-20T03:20:19.743Z,100504.86
2018-09-20T03:22:50.420Z,100507.91
2018-09-20T03:25:21.216Z,100513.34
2018-09-20T03:27:51.809Z,100514.67
2018-09-20T03:30:23.109Z,100510.32
2018-09-20T03:32:53.766Z,100509.94
2018-09-20T03:35:24.486Z,100512.09
2018-09-20T03:37:55.183Z,100512.34
2018-09-20T03:40:25.839Z,100505.80
2018-09-20T03:42:56.625Z,100513.08
2018-09-20T03:45:27.366Z,100508.59
2018-09-20T03:47:58.057Z,100513.33
2018-09-20T03:50:28.740Z,100511.09
2018-09-20T03:52:59.478Z,100516.95
2018-09-20T03:55:30.204Z,100516.60
2018-09-20T03:58:00.921Z,100515.35
2018-09-20T04:00:31.589Z,100510.02
2018-09-20T04:03:02.299Z,100507.56
2018-09-20T04:05:33.110Z,100509.02
2018-09-20T04:08:03.783Z,100505.27
2018-09-20T04:10:34.467Z,100511.21
2018-09-20T04:13:05.162Z,100502.36
2018-09-20T04:15:36.051Z,100511.56
2018-09-20T04:18:06.889Z,100509.03
2018-09-20T04:20:37.720Z,100511.05
2018-09-20T04:23:08.532Z,100512.20
2018-09-20T04:25:39.248Z,100507.56
2018-09-20T04:28:09.938Z,100510.70
2018-09-20T04:30:40.585Z,100503.44
2018-09-20T04:33:11.346Z,100504.29
2018-09-20T04:35:42.040Z,100505.75
2018-09-20T04:38:12.738Z,100507.16
2018-09-20T04:40:43.476Z,100512.03
2018-09-20T04:43:14.230Z,100508.02
2018-09-20T04:45:44.864Z,100514.31
2018-09-20T04:48:15.479Z,100511.69
2018-09-20T04:50:46.136Z,100510.88
2018-09-20T04:53:16.927Z,100515.34
2018-09-20T04:55:47.548Z,100515.81
2018-09-20T04:58:18.371Z,100511.95
2018-09-20T05:00:49.013Z,100519.09
2018-09-20T05:03:19.836Z,100517.03
2018-09-20T05:05:50.644Z,100506.56
2018-09-20T05:08:21.400Z,100510.70
2018-09-20T05:10:52.022Z,100509.19
2018-09-20T05:13:22.730Z,100508.02
2018-09-20T05:15:54.605Z,100502.34
2018-09-20T05:18:25.299Z,100501.83
2018-09-20T05:20:56.020Z,100505.54
2018-09-20T05:23:26.902Z,100508.02
2018-09-20T05:25:57.571Z,100512.63
2018-09-20T05:28:28.301Z,100509.50
2018-09-20T05:30:58.932Z,100511.05
2018-09-20T05:33:29.724Z,100509.97
2018-09-20T05:36:00.819Z,100506.52
2018-09-20T05:38:31.546Z,100504.07
2018-09-20T05:41:02.323Z,100508.55
2018-09-20T05:43:33.024Z,100505.41
2018-09-20T05:46:03.994Z,100513.23
2018-09-20T05:48:34.620Z,100502.47
2018-09-20T05:51:05.409Z,100500.34
2018-09-20T05:53:36.139Z,100506.48
2018-09-20T05:56:06.961Z,100505.20
2018-09-20T05:58:37.677Z,100507.36
2018-09-20T06:01:08.329Z,100509.08
2018-09-20T06:03:38.977Z,100511.02
2018-09-20T06:06:09.609Z,100511.15
2018-09-20T06:08:40.328Z,100521.99
2018-09-20T06:11:11.073Z,100515.06
2018-09-20T06:13:41.787Z,100516.70
2018-09-20T06:16:12.614Z,100510.41
2018-09-20T06:18:43.305Z,100504.84
2018-09-20T06:21:13.988Z,100513.75
2018-09-20T06:23:44.713Z,100510.81
2018-09-20T06:26:15.578Z,100521.02
2018-09-20T06:28:46.327Z,100515.78
2018-09-20T06:31:16.984Z,100516.89
2018-09-20T06:33:47.660Z,100519.08
2018-09-20T06:36:18.324Z,100533.91
2018-09-20T06:38:49.045Z,100532.09
2018-09-20T06:41:19.705Z,100531.20
2018-09-20T06:43:50.421Z,100525.87
2018-09-20T06:46:21.100Z,100527.59
2018-09-20T06:48:51.756Z,100519.78
2018-09-20T06:51:22.399Z,100523.40
2018-09-20T06:53:53.291Z,100523.14
2018-09-20T06:56:24.051Z,100510.63
2018-09-20T06:58:54.776Z,100509.83
2018-09-20T07:01:26.411Z,100512.91
2018-09-20T07:03:57.140Z,100502.27
2018-09-20T07:06:27.784Z,100501.03
2018-09-20T07:08:58.451Z,100503.77
2018-09-20T07:11:29.113Z,100504.17
2018-09-20T07:13:59.775Z,100498.05
2018-09-20T07:16:30.509Z,100496.00
2018-09-20T07:19:01.644Z,100496.14
2018-09-20T07:21:33.860Z,100497.27
2018-09-20T07:24:04.498Z,100503.09
2018-09-20T07:26:35.205Z,100502.13
2018-09-20T07:29:06.088Z,100498.91
2018-09-20T07:31:36.778Z,100506.31
2018-09-20T07:34:07.503Z,100503.34
2018-09-20T07:36:38.203Z,100510.49
2018-09-20T07:39:10.307Z,100505.39
2018-09-20T07:41:41.059Z,100495.61
2018-09-20T07:44:11.715Z,100504.96
2018-09-20T07:46:42.478Z,100491.78
2018-09-20T07:49:16.070Z,100501.20
2018-09-20T07:51:47.253Z,100511.19
2018-09-20T07:54:17.979Z,100512.09
2018-09-20T07:56:48.705Z,100511.30
2018-09-20T07:59:19.530Z,100510.78
2018-09-20T08:01:50.263Z,100500.73
2018-09-20T08:04:20.909Z,100511.91
2018-09-20T08:06:51.597Z,100517.63
2018-09-20T08:09:22.231Z,100514.80
2018-09-20T08:11:52.972Z,100509.88
2018-09-20T08:14:23.624Z,100525.17
2018-09-20T08:16:54.311Z,100519.91
2018-09-20T08:19:24.995Z,100513.02
2018-09-20T08:21:56.127Z,100513.81
2018-09-20T08:24:26.870Z,100518.80
2018-09-20T08:26:57.498Z,100518.00
2018-09-20T08:29:28.145Z,100511.21
2018-09-20T08:31:58.847Z,100512.95
2018-09-20T08:34:29.550Z,100509.82
2018-09-20T08:37:00.282Z,100516.13
2018-09-20T08:39:30.928Z,100511.47
2018-09-20T08:42:01.599Z,100522.63
2018-09-20T08:44:32.180Z,100513.14
2018-09-20T08:47:02.911Z,100511.92
2018-09-20T08:49:33.674Z,100509.53
2018-09-20T08:52:04.467Z,100507.33
2018-09-20T08:54:35.275Z,100507.56
2018-09-20T08:57:06.049Z,100512.25
2018-09-20T08:59:36.798Z,100506.02
2018-09-20T09:02:07.516Z,100522.80
2018-09-20T09:04:38.286Z,100516.92
2018-09-20T09:07:08.867Z,100518.91
2018-09-20T09:09:39.591Z,100513.36
2018-09-20T09:12:10.288Z,100513.37
2018-09-20T09:14:40.945Z,100504.95
2018-09-20T09:17:11.596Z,100506.09
2018-09-20T09:19:42.262Z,100507.52
2018-09-20T09:22:12.928Z,100497.91
2018-09-20T09:24:43.561Z,100494.61
2018-09-20T09:27:14.312Z,100497.86
2018-09-20T09:29:44.998Z,100492.09
2018-09-20T09:32:15.609Z,100499.95
2018-09-20T09:34:46.271Z,100492.45
2018-09-20T09:37:17.401Z,100475.56
2018-09-20T09:39:48.064Z,100480.32
2018-09-20T09:42:18.746Z,100477.27
2018-09-20T09:44:49.377Z,100470.71
2018-09-20T09:47:20.032Z,100458.31
2018-09-20T09:49:50.739Z,100473.88
2018-09-20T09:52:21.423Z,100463.08
2018-09-20T09:54:52.160Z,100468.86
2018-09-20T09:57:22.866Z,100464.95
2018-09-20T09:59:53.599Z,100472.58
2018-09-20T10:02:24.535Z,100468.18
2018-09-20T10:04:56.172Z,100468.80
2018-09-20T10:07:26.872Z,100473.12
2018-09-20T10:09:57.504Z,100462.69
2018-09-20T10:12:28.179Z,100467.09
2018-09-20T10:14:59.488Z,100457.86
2018-09-20T10:17:30.190Z,100462.09
2018-09-20T10:20:00.866Z,100452.51
2018-09-20T10:22:31.463Z,100456.77
2018-09-20T10:25:02.224Z,100464.23
2018-09-20T10:27:32.895Z,100456.83
2018-09-20T10:30:04.360Z,100454.76
2018-09-20T10:32:35.140Z,100452.91
2018-09-20T10:35:06.322Z,100454.58
2018-09-20T10:37:37.068Z,100444.22
2018-09-20T10:40:07.888Z,100444.80
2018-09-20T10:42:38.583Z,100452.86
2018-09-20T10:45:09.260Z,100450.15
2018-09-20T10:47:39.887Z,100439.56
2018-09-20T10:50:10.801Z,100423.75
2018-09-20T10:52:41.512Z,100430.73
2018-09-20T10:55:12.301Z,100426.06
2018-09-20T10:57:42.922Z,100426.80
2018-09-20T11:00:13.594Z,100423.91
2018-09-20T11:02:44.232Z,100429.63
2018-09-20T11:05:14.986Z,100419.20
2018-09-20T11:07:45.635Z,100422.92
2018-09-20T11:10:16.347Z,100417.88
2018-09-20T11:12:47.013Z,100419.83
2018-09-20T11:15:17.676Z,100417.48
2018-09-20T11:17:48.645Z,100408.22
2018-09-20T11:20:19.301Z,100413.05
2018-09-20T11:22:49.987Z,100416.95
2018-09-20T11:25:20.573Z,100407.16
2018-09-20T11:27:51.209Z,100402.39
2018-09-20T11:30:21.960Z,100398.03
2018-09-20T11:32:52.637Z,100406.27
2018-09-20T11:35:23.331Z,100403.77
2018-09-20T11:37:54.007Z,100404.95
2018-09-20T11:40:24.733Z,100418.11
2018-09-20T11:42:55.444Z,100412.04
2018-09-20T11:45:26.179Z,100408.51
2018-09-20T11:47:56.875Z,100398.70
2018-09-20T11:50:27.601Z,100407.66
2018-09-20T11:52:58.271Z,100396.84
2018-09-20T11:55:28.917Z,100398.73
2018-09-20T11:57:59.628Z,100388.16
2018-09-20T12:00:30.379Z,100391.04
2018-09-20T12:03:01.024Z,100393.27
2018-09-20T12:05:31.768Z,100392.66
2018-09-20T12:08:02.506Z,100382.83
2018-09-20T12:10:33.398Z,100391.96
2018-09-20T12:13:04.184Z,100379.91
2018-09-20T12:15:34.878Z,100384.28
2018-09-20T12:18:05.657Z,100384.53
2018-09-20T12:20:36.340Z,100374.84
2018-09-20T12:23:07.101Z,100369.01
2018-09-20T12:25:37.790Z,100368.28
2018-09-20T12:28:08.564Z,100365.48
2018-09-20T12:30:39.203Z,100356.73
2018-09-20T12:33:09.920Z,100356.88
2018-09-20T12:35:40.733Z,100346.71
2018-09-20T12:38:11.385Z,100356.70
2018-09-20T12:40:42.013Z,100352.53
2018-09-20T12:43:12.709Z,100332.50
2018-09-20T12:45:43.327Z,100339.67
2018-09-20T12:48:14.005Z,100337.98
2018-09-20T12:50:44.762Z,100325.81
2018-09-20T12:53:15.451Z,100321.72
2018-09-20T12:55:46.163Z,100320.03
2018-09-20T12:58:57.583Z,100312.41
2018-09-20T13:01:28.513Z,100308.19
2018-09-20T13:03:59.154Z,100314.61
2018-09-20T13:06:29.820Z,100311.65
2018-09-20T13:09:00.622Z,100303.24
2018-09-20T13:11:31.379Z,100299.78
2018-09-20T13:14:02.094Z,100296.48
2018-09-20T13:16:32.783Z,100298.66
2018-09-20T13:19:03.695Z,100296.67
2018-09-20T13:21:34.501Z,100291.11
2018-09-20T13:24:05.221Z,100296.73
2018-09-20T13:26:35.837Z,100294.97
2018-09-20T13:29:06.595Z,100297.86
2018-09-20T13:31:37.298Z,100304.38
2018-09-20T13:34:08.003Z,100292.61
2018-09-20T13:36:38.756Z,100288.86
2018-09-20T13:39:12.056Z,100285.13
2018-09-20T13:41:42.809Z,100279.80
2018-09-20T13:44:13.461Z,100276.89
2018-09-20T13:46:44.171Z,100278.45
2018-09-20T13:49:14.803Z,100282.12
2018-09-20T13:51:45.495Z,100282.59
2018-09-20T13:54:16.100Z,100278.50
2018-09-20T13:56:46.784Z,100276.32
2018-09-20T13:59:17.564Z,100264.95
2018-09-20T14:01:48.317Z,100261.82
2018-09-20T14:04:18.992Z,100254.25
2018-09-20T14:06:49.702Z,100255.77
2018-09-20T14:09:20.439Z,100252.34
2018-09-20T14:11:51.106Z,100240.88
2018-09-20T14:14:21.774Z,100238.98
2018-09-20T14:16:52.439Z,100233.72
2018-09-20T14:19:23.245Z,100233.13
2018-09-20T14:21:53.928Z,100232.31
2018-09-20T14:24:24.573Z,100228.62
2018-09-20T14:26:55.279Z,100231.80
2018-09-20T14:29:25.920Z,100228.72
2018-09-20T14:31:56.633Z,100217.64
2018-09-20T14:34:27.303Z,100226.10
2018-09-20T14:36:57.969Z,100222.67
2018-09-20T14:39:28.839Z,100209.67
2018-09-20T14:41:59.520Z,100205.59
2018-09-20T14:44:30.233Z,100195.97
2018-09-20T14:47:00.932Z,100201.05
2018-09-20T14:49:31.589Z,100189.83
2018-09-20T14:52:02.272Z,100179.16
2018-09-20T14:54:32.946Z,100185.17
2018-09-20T14:57:03.649Z,100188.20
2018-09-20T14:59:34.358Z,100171.12
2018-09-20T15:02:05.115Z,100172.41
2018-09-20T15:04:35.771Z,100179.40
2018-09-20T15:07:06.523Z,100165.53
2018-09-20T15:09:37.127Z,100165.22
2018-09-20T15:12:07.901Z,100154.54
2018-09-20T15:14:38.657Z,100152.42
2018-09-20T15:17:10.170Z,100149.42
2018-09-20T15:19:40.805Z,100151.45
2018-09-20T15:22:11.468Z,100152.98
2018-09-20T15:24:42.324Z,100143.59
2018-09-20T15:27:12.835Z,100141.47
2018-09-20T15:29:43.483Z,100136.95
2018-09-20T15:32:14.128Z,100137.55
2018-09-20T15:34:44.771Z,100126.83
2018-09-20T15:37:15.416Z,100133.19
2018-09-20T15:39:46.071Z,100132.23
2018-09-20T15:42:16.767Z,100120.98
2018-09-20T15:44:47.565Z,100118.46
2018-09-20T15:47:18.398Z,100111.27
2018-09-20T15:49:49.231Z,100110.75
2018-09-20T15:52:20.112Z,100109.20
2018-09-20T15:54:50.815Z,100115.67
2018-09-20T15:57:21.435Z,100107.67
2018-09-20T15:59:52.097Z,100100.33
2018-09-20T16:02:22.753Z,100103.23
2018-09-20T16:04:53.388Z,100110.52
2018-09-20T16:07:24.047Z,100106.88
2018-09-20T16:09:54.772Z,100101.69
2018-09-20T16:12:25.621Z,100095.17
2018-09-20T16:14:56.332Z,100096.86
2018-09-20T16:17:27.000Z,100086.86
2018-09-20T16:19:57.984Z,100080.95
2018-09-20T16:22:28.689Z,100073.34
2018-09-20T16:24:59.351Z,100076.12
2018-09-20T16:27:30.101Z,100065.27
2018-09-20T16:30:28.296Z,100062.64
2018-09-20T16:33:38.681Z,100053.64
2018-09-20T16:36:40.208Z,100048.67
2018-09-20T16:39:19.321Z,100039.91
2018-09-20T16:41:54.461Z,100039.06
2018-09-20T16:44:25.093Z,100039.72
2018-09-20T16:46:55.783Z,100037.17
2018-09-20T16:49:26.376Z,100031.55
2018-09-20T16:51:57.064Z,100027.71
2018-09-20T16:54:27.744Z,100023.42
2018-09-20T16:56:58.446Z,100021.38
2018-09-20T16:59:29.148Z,100026.52
2018-09-20T17:01:59.847Z,100029.78
2018-09-20T17:04:30.503Z,100025.59
2018-09-20T17:07:01.188Z,100024.75
2018-09-20T17:09:31.888Z,100018.55
2018-09-20T17:12:02.560Z,100018.72
2018-09-20T17:14:33.254Z,100012.84
2018-09-20T17:17:04.059Z,100016.09
2018-09-20T17:19:34.781Z,100010.53
2018-09-20T17:22:05.449Z,100006.84
2018-09-20T17:24:36.090Z,100014.07
2018-09-20T17:27:06.916Z,100013.06
2018-09-20T17:29:37.614Z,100004.65
2018-09-20T17:32:08.283Z,100003.13
2018-09-20T17:34:39.460Z,100006.16
2018-09-20T17:37:11.815Z,100002.80
2018-09-20T17:39:45.162Z,100003.23
2018-09-20T17:42:16.842Z,100002.56
2018-09-20T17:44:47.579Z,99992.81
2018-09-20T17:47:18.353Z,99992.63
2018-09-20T17:49:48.986Z,99996.15
2018-09-20T17:52:20.362Z,99992.42
2018-09-20T17:54:51.825Z,99990.04
2018-09-20T17:57:23.411Z,99989.48
2018-09-20T17:59:54.101Z,99983.42
2018-09-20T18:02:24.733Z,99991.47
2018-09-20T18:04:55.413Z,99990.22
2018-09-20T18:07:26.067Z,99984.38
2018-09-20T18:09:56.755Z,99981.75
2018-09-20T18:12:27.511Z,99980.39
2018-09-20T18:14:58.200Z,99974.73
2018-09-20T18:17:28.899Z,99970.98
2018-09-20T18:19:59.557Z,99965.27
2018-09-20T18:22:30.326Z,99960.49
2018-09-20T18:25:00.972Z,99964.79
2018-09-20T18:27:31.655Z,99963.26
2018-09-20T18:30:35.597Z,99968.73
2018-09-20T18:33:06.323Z,99971.19
2018-09-20T18:35:37.207Z,99963.89
2018-09-20T18:38:08.082Z,99961.17
2018-09-20T18:40:38.764Z,99958.47
2018-09-20T18:43:09.399Z,99952.83
2018-09-20T18:45:40.051Z,99953.98
2018-09-20T18:48:10.711Z,99964.13
2018-09-20T18:50:41.396Z,99964.86
2018-09-20T18:53:12.025Z,99960.57
2018-09-20T18:55:42.689Z,99958.77
2018-09-20T18:58:13.348Z,99960.75
2018-09-20T19:00:44.023Z,99955.05
2018-09-20T19:03:14.810Z,99959.94
2018-09-20T19:05:45.562Z,99957.99
2018-09-20T19:08:16.223Z,99961.05
2018-09-20T19:10:46.942Z,99962.30
2018-09-20T19:13:17.622Z,99956.30
2018-09-20T19:15:48.301Z,99954.25
2018-09-20T19:18:19.041Z,99956.16
2018-09-20T19:20:49.737Z,99952.27
2018-09-20T19:23:20.458Z,99953.92
2018-09-20T19:25:51.155Z,99951.72
2018-09-20T19:28:21.882Z,99947.59
2018-09-20T19:30:52.568Z,99940.33
2018-09-20T19:33:23.214Z,99935.61
2018-09-20T19:35:53.890Z,99933.23
2018-09-20T19:38:24.552Z,99934.53
2018-09-20T19:40:55.244Z,99928.66
2018-09-20T19:43:25.864Z,99926.45
2018-09-20T19:45:56.565Z,99932.41
2018-09-20T19:48:33.865Z,99931.35
2018-09-20T19:51:04.518Z,99926.75
2018-09-20T19:53:35.236Z,99923.05
2018-09-20T19:56:05.893Z,99923.59
2018-09-20T19:58:36.552Z,99914.66
2018-09-20T20:01:07.625Z,99919.54
2018-09-20T20:03:38.258Z,99911.23
2018-09-20T20:06:08.924Z,99914.67
2018-09-20T20:08:39.665Z,99911.94
2018-09-20T20:11:10.373Z,99912.91
2018-09-20T20:13:41.033Z,99911.94
2018-09-20T20:16:11.753Z,99909.89
2018-09-20T20:18:42.815Z,99905.50
2018-09-20T20:21:13.496Z,99897.09
2018-09-20T20:23:44.174Z,99902.11
2018-09-20T20:26:15.338Z,99894.05
2018-09-20T20:28:46.109Z,99888.04
2018-09-20T20:31:17.428Z,99888.67
2018-09-20T20:33:48.264Z,99887.12
2018-09-20T20:36:18.928Z,99881.84
2018-09-20T20:38:49.579Z,99878.59
2018-09-20T20:41:20.315Z,99869.88
2018-09-20T20:43:51.024Z,99870.64
2018-09-20T20:46:21.767Z,99867.02
2018-09-20T20:48:52.482Z,99871.02
2018-09-20T20:51:23.185Z,99865.02
2018-09-20T20:53:53.824Z,99867.08
2018-09-20T20:56:24.476Z,99864.27
2018-09-20T20:58:55.245Z,99860.62
2018-09-20T21:01:25.818Z,99860.67
2018-09-20T21:03:56.487Z,99862.70
2018-09-20T21:06:27.164Z,99861.36
2018-09-20T21:08:57.955Z,99859.88
2018-09-20T21:11:28.536Z,99847.84
2018-09-20T21:13:59.747Z,99850.62
2018-09-20T21:16:30.400Z,99842.69
2018-09-20T21:19:01.065Z,99850.20
2018-09-20T21:21:31.752Z,99841.44
2018-09-20T21:24:02.345Z,99836.61
2018-09-20T21:26:33.005Z,99834.53
2018-09-20T21:29:03.669Z,99822.25
2018-09-20T21:32:05.301Z,99827.16
2018-09-20T21:34:35.999Z,99817.08
2018-09-20T21:37:06.711Z,99808.36
2018-09-20T21:39:37.406Z,99814.28
2018-09-20T21:42:08.096Z,99803.59
2018-09-20T21:44:38.763Z,99800.24
2018-09-20T21:47:09.413Z,99796.63
2018-09-20T21:49:40.021Z,99788.69
2018-09-20T21:52:10.685Z,99783.12
2018-09-20T21:54:41.304Z,99785.52
2018-09-20T21:57:12.014Z,99773.41
2018-09-20T21:59:42.640Z,99771.06
2018-09-20T22:02:13.357Z,99772.58
2018-09-20T22:04:44.069Z,99763.16
2018-09-20T22:07:14.752Z,99757.79
2018-09-20T22:09:45.377Z,99754.91
2018-09-20T22:12:16.064Z,99755.41
2018-09-20T22:14:46.707Z,99754.23
2018-09-20T22:17:17.387Z,99751.55
2018-09-20T22:19:48.052Z,99748.72
2018-09-20T22:22:18.693Z,99745.16
2018-09-20T22:24:49.344Z,99738.97
2018-09-20T22:27:20.020Z,99725.85
2018-09-20T22:29:50.823Z,99730.34
2018-09-20T22:32:21.453Z,99718.44
2018-09-20T22:34:52.184Z,99716.76
2018-09-20T22:37:22.797Z,99706.28
2018-09-20T22:39:53.412Z,99702.59
2018-09-20T22:42:24.078Z,99702.59
2018-09-20T22:44:54.691Z,99702.26
2018-09-20T22:47:25.445Z,99701.27
2018-09-20T22:49:56.127Z,99695.91
2018-09-20T22:52:26.818Z,99704.68
2018-09-20T22:54:57.518Z,99695.92
2018-09-20T22:57:28.126Z,99691.42
2018-09-20T22:59:58.795Z,99684.72
2018-09-20T23:02:29.474Z,99682.50
2018-09-20T23:05:00.127Z,99674.95
2018-09-20T23:07:30.822Z,99682.34
2018-09-20T23:10:01.404Z,99678.94
2018-09-20T23:12:32.074Z,99670.31
2018-09-20T23:15:02.709Z,99668.97
2018-09-20T23:17:33.352Z,99669.70
2018-09-20T23:20:04.026Z,99669.02
2018-09-20T23:22:34.725Z,99663.48
2018-09-20T23:25:05.470Z,99659.75
2018-09-20T23:27:36.094Z,99658.08
2018-09-20T23:30:06.908Z,99654.59
2018-09-20T23:32:37.661Z,99655.89
2018-09-20T23:35:08.399Z,99646.55
2018-09-20T23:37:39.039Z,99645.86
2018-09-20T23:40:09.632Z,99651.53
2018-09-20T23:42:40.285Z,99644.50
2018-09-20T23:45:10.928Z,99647.34
2018-09-20T23:47:41.570Z,99650.37
2018-09-20T23:50:12.269Z,99639.34
2018-09-20T23:52:43.009Z,99636.17
2018-09-20T23:55:13.652Z,99632.42
2018-09-20T23:57:44.303Z,99624.59
